sensor_id;sensor_type;location;lat;lon;timestamp;P1;durP1;ratioP1;P2;durP2;ratioP2
48040;SDS011;33815;48.386;11.738;2024-01-06T00:00:49;26.67;;;12.90;;
48040;SDS011;33815;48.386;11.738;2024-01-06T00:03:14;28.65;;;13.32;;
48040;SDS011;33815;48.386;11.738;2024-01-06T00:05:39;18.05;;;12.20;;
48040;SDS011;33815;48.386;11.738;2024-01-06T00:08:05;18.88;;;12.10;;
48040;SDS011;33815;48.386;11.738;2024-01-06T00:10:31;18.90;;;11.73;;
48040;SDS011;33815;48.386;11.738;2024-01-06T00:12:56;16.13;;;11.45;;
48040;SDS011;33815;48.386;11.738;2024-01-06T00:15:22;21.40;;;12.38;;
48040;SDS011;33815;48.386;11.738;2024-01-06T00:17:47;18.15;;;12.95;;
48040;SDS011;33815;48.386;11.738;2024-01-06T00:20:13;15.32;;;11.48;;
48040;SDS011;33815;48.386;11.738;2024-01-06T00:22:38;16.83;;;12.63;;
48040;SDS011;33815;48.386;11.738;2024-01-06T00:25:03;17.30;;;11.18;;
48040;SDS011;33815;48.386;11.738;2024-01-06T00:27:29;19.30;;;11.60;;
48040;SDS011;33815;48.386;11.738;2024-01-06T00:29:54;22.63;;;10.98;;
48040;SDS011;33815;48.386;11.738;2024-01-06T00:32:19;18.70;;;12.33;;
48040;SDS011;33815;48.386;11.738;2024-01-06T00:34:45;17.48;;;11.80;;
48040;SDS011;33815;48.386;11.738;2024-01-06T00:37:10;19.63;;;12.20;;
48040;SDS011;33815;48.386;11.738;2024-01-06T00:39:35;16.67;;;12.60;;
48040;SDS011;33815;48.386;11.738;2024-01-06T00:42:00;20.92;;;14.70;;
48040;SDS011;33815;48.386;11.738;2024-01-06T00:44:26;18.58;;;12.77;;
48040;SDS011;33815;48.386;11.738;2024-01-06T00:46:51;20.07;;;13.83;;
48040;SDS011;33815;48.386;11.738;2024-01-06T00:49:16;24.17;;;14.27;;
48040;SDS011;33815;48.386;11.738;2024-01-06T00:51:41;28.97;;;17.30;;
48040;SDS011;33815;48.386;11.738;2024-01-06T00:54:07;28.50;;;16.00;;
48040;SDS011;33815;48.386;11.738;2024-01-06T00:56:32;21.75;;;13.65;;
48040;SDS011;33815;48.386;11.738;2024-01-06T00:58:57;21.25;;;12.10;;
48040;SDS011;33815;48.386;11.738;2024-01-06T01:01:22;18.95;;;12.13;;
48040;SDS011;33815;48.386;11.738;2024-01-06T01:03:48;17.85;;;11.27;;
48040;SDS011;33815;48.386;11.738;2024-01-06T01:06:13;19.15;;;11.25;;
48040;SDS011;33815;48.386;11.738;2024-01-06T01:08:38;17.25;;;11.32;;
48040;SDS011;33815;48.386;11.738;2024-01-06T01:11:03;15.27;;;10.90;;
48040;SDS011;33815;48.386;11.738;2024-01-06T01:13:29;13.73;;;9.93;;
48040;SDS011;33815;48.386;11.738;2024-01-06T01:15:54;15.52;;;10.65;;
48040;SDS011;33815;48.386;11.738;2024-01-06T01:18:19;13.18;;;9.90;;
48040;SDS011;33815;48.386;11.738;2024-01-06T01:20:45;17.93;;;10.77;;
48040;SDS011;33815;48.386;11.738;2024-01-06T01:23:10;17.08;;;11.60;;
48040;SDS011;33815;48.386;11.738;2024-01-06T01:25:35;15.20;;;10.40;;
48040;SDS011;33815;48.386;11.738;2024-01-06T01:28:00;15.38;;;10.13;;
48040;SDS011;33815;48.386;11.738;2024-01-06T01:30:26;18.50;;;11.57;;
48040;SDS011;33815;48.386;11.738;2024-01-06T01:32:52;15.25;;;10.00;;
48040;SDS011;33815;48.386;11.738;2024-01-06T01:35:17;16.45;;;10.60;;
48040;SDS011;33815;48.386;11.738;2024-01-06T01:37:43;16.15;;;10.93;;
48040;SDS011;33815;48.386;11.738;2024-01-06T01:40:08;15.23;;;9.90;;
48040;SDS011;33815;48.386;11.738;2024-01-06T01:42:34;17.20;;;10.75;;
48040;SDS011;33815;48.386;11.738;2024-01-06T01:44:59;17.17;;;11.30;;
48040;SDS011;33815;48.386;11.738;2024-01-06T01:47:24;13.20;;;9.65;;
48040;SDS011;33815;48.386;11.738;2024-01-06T01:49:50;18.55;;;11.02;;
48040;SDS011;33815;48.386;11.738;2024-01-06T01:52:17;18.95;;;11.48;;
48040;SDS011;33815;48.386;11.738;2024-01-06T01:54:42;20.45;;;12.07;;
48040;SDS011;33815;48.386;11.738;2024-01-06T01:57:10;18.20;;;12.18;;
48040;SDS011;33815;48.386;11.738;2024-01-06T01:59:37;21.42;;;11.70;;
48040;SDS011;33815;48.386;11.738;2024-01-06T02:02:03;14.57;;;11.00;;
48040;SDS011;33815;48.386;11.738;2024-01-06T02:04:29;17.27;;;11.25;;
48040;SDS011;33815;48.386;11.738;2024-01-06T02:06:54;22.00;;;13.98;;
48040;SDS011;33815;48.386;11.738;2024-01-06T02:09:19;22.58;;;14.55;;
48040;SDS011;33815;48.386;11.738;2024-01-06T02:11:48;20.92;;;13.60;;
48040;SDS011;33815;48.386;11.738;2024-01-06T02:14:13;23.77;;;14.05;;
48040;SDS011;33815;48.386;11.738;2024-01-06T02:16:38;26.65;;;14.85;;
48040;SDS011;33815;48.386;11.738;2024-01-06T02:19:03;26.83;;;14.67;;
48040;SDS011;33815;48.386;11.738;2024-01-06T02:21:30;24.85;;;14.98;;
48040;SDS011;33815;48.386;11.738;2024-01-06T02:23:56;26.30;;;14.63;;
48040;SDS011;33815;48.386;11.738;2024-01-06T02:26:21;24.42;;;14.60;;
48040;SDS011;33815;48.386;11.738;2024-01-06T02:28:47;23.65;;;13.90;;
48040;SDS011;33815;48.386;11.738;2024-01-06T02:31:14;24.23;;;13.93;;
48040;SDS011;33815;48.386;11.738;2024-01-06T02:33:39;22.80;;;13.25;;
48040;SDS011;33815;48.386;11.738;2024-01-06T02:36:04;23.70;;;13.55;;
48040;SDS011;33815;48.386;11.738;2024-01-06T02:38:30;22.05;;;12.95;;
48040;SDS011;33815;48.386;11.738;2024-01-06T02:40:55;24.65;;;13.68;;
48040;SDS011;33815;48.386;11.738;2024-01-06T02:43:20;20.35;;;13.50;;
48040;SDS011;33815;48.386;11.738;2024-01-06T02:45:47;23.30;;;13.95;;
48040;SDS011;33815;48.386;11.738;2024-01-06T02:48:12;23.70;;;13.85;;
48040;SDS011;33815;48.386;11.738;2024-01-06T02:50:37;20.30;;;12.82;;
48040;SDS011;33815;48.386;11.738;2024-01-06T02:53:03;15.50;;;10.77;;
48040;SDS011;33815;48.386;11.738;2024-01-06T02:55:28;19.35;;;11.25;;
48040;SDS011;33815;48.386;11.738;2024-01-06T02:57:53;18.42;;;11.07;;
48040;SDS011;33815;48.386;11.738;2024-01-06T03:00:19;19.67;;;11.88;;
48040;SDS011;33815;48.386;11.738;2024-01-06T03:02:44;16.50;;;10.73;;
48040;SDS011;33815;48.386;11.738;2024-01-06T03:05:09;18.27;;;11.18;;
48040;SDS011;33815;48.386;11.738;2024-01-06T03:07:35;17.52;;;10.15;;
48040;SDS011;33815;48.386;11.738;2024-01-06T03:10:01;14.05;;;10.02;;
48040;SDS011;33815;48.386;11.738;2024-01-06T03:12:26;18.38;;;10.45;;
48040;SDS011;33815;48.386;11.738;2024-01-06T03:14:52;14.82;;;9.02;;
48040;SDS011;33815;48.386;11.738;2024-01-06T03:17:17;11.20;;;8.65;;
48040;SDS011;33815;48.386;11.738;2024-01-06T03:19:43;15.27;;;9.05;;
48040;SDS011;33815;48.386;11.738;2024-01-06T03:22:09;10.00;;;7.45;;
48040;SDS011;33815;48.386;11.738;2024-01-06T03:24:34;10.85;;;7.28;;
48040;SDS011;33815;48.386;11.738;2024-01-06T03:26:59;10.52;;;6.47;;
48040;SDS011;33815;48.386;11.738;2024-01-06T03:29:25;7.68;;;5.75;;
48040;SDS011;33815;48.386;11.738;2024-01-06T03:31:50;8.82;;;5.43;;
48040;SDS011;33815;48.386;11.738;2024-01-06T03:34:15;9.48;;;5.93;;
48040;SDS011;33815;48.386;11.738;2024-01-06T03:36:40;8.73;;;5.40;;
48040;SDS011;33815;48.386;11.738;2024-01-06T03:39:06;7.18;;;4.90;;
48040;SDS011;33815;48.386;11.738;2024-01-06T03:41:31;8.18;;;4.88;;
48040;SDS011;33815;48.386;11.738;2024-01-06T03:43:57;8.90;;;5.18;;
48040;SDS011;33815;48.386;11.738;2024-01-06T03:46:23;9.35;;;6.50;;
48040;SDS011;33815;48.386;11.738;2024-01-06T03:48:48;8.30;;;6.22;;
48040;SDS011;33815;48.386;11.738;2024-01-06T03:51:13;11.23;;;6.45;;
48040;SDS011;33815;48.386;11.738;2024-01-06T03:53:39;7.15;;;5.43;;
48040;SDS011;33815;48.386;11.738;2024-01-06T03:56:05;6.30;;;5.00;;
48040;SDS011;33815;48.386;11.738;2024-01-06T03:58:30;8.77;;;5.85;;
48040;SDS011;33815;48.386;11.738;2024-01-06T04:00:56;6.95;;;5.05;;
48040;SDS011;33815;48.386;11.738;2024-01-06T04:03:21;5.05;;;4.45;;
48040;SDS011;33815;48.386;11.738;2024-01-06T04:05:46;5.20;;;4.32;;
48040;SDS011;33815;48.386;11.738;2024-01-06T04:08:12;4.70;;;4.20;;
48040;SDS011;33815;48.386;11.738;2024-01-06T04:10:37;5.85;;;4.10;;
48040;SDS011;33815;48.386;11.738;2024-01-06T04:13:02;4.68;;;3.42;;
48040;SDS011;33815;48.386;11.738;2024-01-06T04:15:28;4.68;;;3.05;;
48040;SDS011;33815;48.386;11.738;2024-01-06T04:17:54;3.08;;;2.65;;
48040;SDS011;33815;48.386;11.738;2024-01-06T04:20:19;2.58;;;2.20;;
48040;SDS011;33815;48.386;11.738;2024-01-06T04:22:44;2.85;;;2.35;;
48040;SDS011;33815;48.386;11.738;2024-01-06T04:25:10;3.58;;;2.47;;
48040;SDS011;33815;48.386;11.738;2024-01-06T04:27:35;2.75;;;2.53;;
48040;SDS011;33815;48.386;11.738;2024-01-06T04:30:00;3.20;;;2.38;;
48040;SDS011;33815;48.386;11.738;2024-01-06T04:32:26;5.10;;;4.03;;
48040;SDS011;33815;48.386;11.738;2024-01-06T04:34:51;5.68;;;3.80;;
48040;SDS011;33815;48.386;11.738;2024-01-06T04:37:16;4.10;;;3.60;;
48040;SDS011;33815;48.386;11.738;2024-01-06T04:39:41;4.38;;;3.97;;
48040;SDS011;33815;48.386;11.738;2024-01-06T04:42:07;5.88;;;4.25;;
48040;SDS011;33815;48.386;11.738;2024-01-06T04:44:32;6.78;;;4.63;;
48040;SDS011;33815;48.386;11.738;2024-01-06T04:46:58;5.57;;;4.60;;
48040;SDS011;33815;48.386;11.738;2024-01-06T04:49:23;7.72;;;4.63;;
48040;SDS011;33815;48.386;11.738;2024-01-06T04:51:48;4.72;;;3.40;;
48040;SDS011;33815;48.386;11.738;2024-01-06T04:54:13;3.78;;;3.30;;
48040;SDS011;33815;48.386;11.738;2024-01-06T04:56:39;5.22;;;3.75;;
48040;SDS011;33815;48.386;11.738;2024-01-06T04:59:04;4.10;;;3.70;;
48040;SDS011;33815;48.386;11.738;2024-01-06T05:01:30;4.47;;;3.90;;
48040;SDS011;33815;48.386;11.738;2024-01-06T05:03:55;5.07;;;4.07;;
48040;SDS011;33815;48.386;11.738;2024-01-06T05:06:20;7.43;;;4.55;;
48040;SDS011;33815;48.386;11.738;2024-01-06T05:08:47;5.60;;;4.63;;
48040;SDS011;33815;48.386;11.738;2024-01-06T05:11:13;10.70;;;6.47;;
48040;SDS011;33815;48.386;11.738;2024-01-06T05:13:38;10.38;;;5.40;;
48040;SDS011;33815;48.386;11.738;2024-01-06T05:16:04;10.70;;;5.07;;
48040;SDS011;33815;48.386;11.738;2024-01-06T05:18:29;6.65;;;5.15;;
48040;SDS011;33815;48.386;11.738;2024-01-06T05:20:54;7.07;;;4.78;;
48040;SDS011;33815;48.386;11.738;2024-01-06T05:23:20;5.43;;;4.85;;
48040;SDS011;33815;48.386;11.738;2024-01-06T05:25:46;6.53;;;4.95;;
48040;SDS011;33815;48.386;11.738;2024-01-06T05:28:11;7.32;;;5.05;;
48040;SDS011;33815;48.386;11.738;2024-01-06T05:30:36;6.38;;;4.70;;
48040;SDS011;33815;48.386;11.738;2024-01-06T05:33:02;6.35;;;4.53;;
48040;SDS011;33815;48.386;11.738;2024-01-06T05:35:28;5.45;;;4.07;;
48040;SDS011;33815;48.386;11.738;2024-01-06T05:37:53;9.07;;;5.20;;
48040;SDS011;33815;48.386;11.738;2024-01-06T05:40:18;6.40;;;4.53;;
48040;SDS011;33815;48.386;11.738;2024-01-06T05:42:44;9.07;;;4.40;;
48040;SDS011;33815;48.386;11.738;2024-01-06T05:45:12;7.50;;;4.22;;
48040;SDS011;33815;48.386;11.738;2024-01-06T05:47:38;5.97;;;3.95;;
48040;SDS011;33815;48.386;11.738;2024-01-06T05:50:03;5.72;;;3.80;;
48040;SDS011;33815;48.386;11.738;2024-01-06T05:52:29;9.63;;;3.85;;
48040;SDS011;33815;48.386;11.738;2024-01-06T05:54:54;6.75;;;4.00;;
48040;SDS011;33815;48.386;11.738;2024-01-06T05:57:20;9.25;;;4.45;;
48040;SDS011;33815;48.386;11.738;2024-01-06T05:59:45;7.63;;;4.03;;
48040;SDS011;33815;48.386;11.738;2024-01-06T06:02:10;9.55;;;4.00;;
48040;SDS011;33815;48.386;11.738;2024-01-06T06:04:36;6.00;;;3.88;;
48040;SDS011;33815;48.386;11.738;2024-01-06T06:07:01;5.73;;;3.10;;
48040;SDS011;33815;48.386;11.738;2024-01-06T06:09:27;7.10;;;4.47;;
48040;SDS011;33815;48.386;11.738;2024-01-06T06:11:53;6.97;;;3.85;;
48040;SDS011;33815;48.386;11.738;2024-01-06T06:14:18;8.82;;;4.20;;
48040;SDS011;33815;48.386;11.738;2024-01-06T06:16:44;4.35;;;3.70;;
48040;SDS011;33815;48.386;11.738;2024-01-06T06:19:09;6.90;;;4.07;;
48040;SDS011;33815;48.386;11.738;2024-01-06T06:21:34;5.15;;;3.65;;
48040;SDS011;33815;48.386;11.738;2024-01-06T06:24:00;5.28;;;3.67;;
48040;SDS011;33815;48.386;11.738;2024-01-06T06:26:25;7.57;;;3.50;;
48040;SDS011;33815;48.386;11.738;2024-01-06T06:28:51;8.52;;;3.55;;
48040;SDS011;33815;48.386;11.738;2024-01-06T06:31:17;8.00;;;3.83;;
48040;SDS011;33815;48.386;11.738;2024-01-06T06:33:42;4.18;;;3.65;;
48040;SDS011;33815;48.386;11.738;2024-01-06T06:36:07;4.53;;;3.33;;
48040;SDS011;33815;48.386;11.738;2024-01-06T06:38:33;5.97;;;3.55;;
48040;SDS011;33815;48.386;11.738;2024-01-06T06:40:58;5.10;;;3.50;;
48040;SDS011;33815;48.386;11.738;2024-01-06T06:43:23;7.68;;;3.30;;
48040;SDS011;33815;48.386;11.738;2024-01-06T06:45:48;7.07;;;3.53;;
48040;SDS011;33815;48.386;11.738;2024-01-06T06:48:14;4.50;;;3.28;;
48040;SDS011;33815;48.386;11.738;2024-01-06T06:50:39;9.57;;;3.45;;
48040;SDS011;33815;48.386;11.738;2024-01-06T06:53:06;7.07;;;4.03;;
48040;SDS011;33815;48.386;11.738;2024-01-06T06:55:31;6.57;;;4.10;;
48040;SDS011;33815;48.386;11.738;2024-01-06T06:57:56;8.13;;;4.38;;
48040;SDS011;33815;48.386;11.738;2024-01-06T07:00:22;11.87;;;3.97;;
48040;SDS011;33815;48.386;11.738;2024-01-06T07:02:47;4.78;;;3.13;;
48040;SDS011;33815;48.386;11.738;2024-01-06T07:05:12;8.20;;;4.55;;
48040;SDS011;33815;48.386;11.738;2024-01-06T07:07:38;10.52;;;5.05;;
48040;SDS011;33815;48.386;11.738;2024-01-06T07:10:04;8.35;;;3.95;;
48040;SDS011;33815;48.386;11.738;2024-01-06T07:12:30;8.35;;;4.32;;
48040;SDS011;33815;48.386;11.738;2024-01-06T07:14:56;5.40;;;4.35;;
48040;SDS011;33815;48.386;11.738;2024-01-06T07:17:23;5.70;;;3.80;;
48040;SDS011;33815;48.386;11.738;2024-01-06T07:19:49;6.47;;;3.75;;
48040;SDS011;33815;48.386;11.738;2024-01-06T07:22:14;6.22;;;4.05;;
48040;SDS011;33815;48.386;11.738;2024-01-06T07:24:41;4.85;;;3.33;;
48040;SDS011;33815;48.386;11.738;2024-01-06T07:27:06;11.73;;;4.45;;
48040;SDS011;33815;48.386;11.738;2024-01-06T07:29:32;8.82;;;4.32;;
48040;SDS011;33815;48.386;11.738;2024-01-06T07:31:57;7.78;;;4.00;;
48040;SDS011;33815;48.386;11.738;2024-01-06T07:34:22;7.07;;;5.28;;
48040;SDS011;33815;48.386;11.738;2024-01-06T07:36:47;9.40;;;4.55;;
48040;SDS011;33815;48.386;11.738;2024-01-06T07:39:13;6.40;;;4.00;;
48040;SDS011;33815;48.386;11.738;2024-01-06T07:41:38;14.00;;;4.32;;
48040;SDS011;33815;48.386;11.738;2024-01-06T07:44:03;5.53;;;3.50;;
48040;SDS011;33815;48.386;11.738;2024-01-06T07:46:29;9.23;;;3.90;;
48040;SDS011;33815;48.386;11.738;2024-01-06T07:48:56;8.63;;;3.90;;
48040;SDS011;33815;48.386;11.738;2024-01-06T07:51:21;6.18;;;3.80;;
48040;SDS011;33815;48.386;11.738;2024-01-06T07:53:46;8.82;;;3.58;;
48040;SDS011;33815;48.386;11.738;2024-01-06T07:56:12;5.55;;;3.58;;
48040;SDS011;33815;48.386;11.738;2024-01-06T07:58:37;9.63;;;3.83;;
48040;SDS011;33815;48.386;11.738;2024-01-06T08:01:02;7.70;;;3.47;;
48040;SDS011;33815;48.386;11.738;2024-01-06T08:03:27;12.35;;;3.88;;
48040;SDS011;33815;48.386;11.738;2024-01-06T08:05:53;8.93;;;4.22;;
48040;SDS011;33815;48.386;11.738;2024-01-06T08:08:19;7.30;;;4.10;;
48040;SDS011;33815;48.386;11.738;2024-01-06T08:10:44;13.35;;;4.35;;
48040;SDS011;33815;48.386;11.738;2024-01-06T08:13:10;8.95;;;4.00;;
48040;SDS011;33815;48.386;11.738;2024-01-06T08:15:36;9.63;;;3.95;;
48040;SDS011;33815;48.386;11.738;2024-01-06T08:18:01;6.55;;;3.33;;
48040;SDS011;33815;48.386;11.738;2024-01-06T08:20:26;7.43;;;3.72;;
48040;SDS011;33815;48.386;11.738;2024-01-06T08:22:52;8.57;;;4.00;;
48040;SDS011;33815;48.386;11.738;2024-01-06T08:25:17;10.63;;;4.10;;
48040;SDS011;33815;48.386;11.738;2024-01-06T08:27:45;11.00;;;4.55;;
48040;SDS011;33815;48.386;11.738;2024-01-06T08:30:11;13.05;;;7.03;;
48040;SDS011;33815;48.386;11.738;2024-01-06T08:32:37;23.45;;;14.10;;
48040;SDS011;33815;48.386;11.738;2024-01-06T08:35:02;113.65;;;45.03;;
48040;SDS011;33815;48.386;11.738;2024-01-06T08:37:28;74.25;;;33.92;;
48040;SDS011;33815;48.386;11.738;2024-01-06T08:39:54;14.95;;;6.78;;
48040;SDS011;33815;48.386;11.738;2024-01-06T08:42:19;7.22;;;5.78;;
48040;SDS011;33815;48.386;11.738;2024-01-06T08:44:44;8.15;;;4.38;;
48040;SDS011;33815;48.386;11.738;2024-01-06T08:47:10;11.13;;;5.53;;
48040;SDS011;33815;48.386;11.738;2024-01-06T08:49:35;6.55;;;4.53;;
48040;SDS011;33815;48.386;11.738;2024-01-06T08:52:01;30.08;;;20.77;;
48040;SDS011;33815;48.386;11.738;2024-01-06T08:54:26;9.55;;;5.38;;
48040;SDS011;33815;48.386;11.738;2024-01-06T08:56:51;14.27;;;4.30;;
48040;SDS011;33815;48.386;11.738;2024-01-06T08:59:16;12.23;;;5.95;;
48040;SDS011;33815;48.386;11.738;2024-01-06T09:01:42;7.80;;;4.10;;
48040;SDS011;33815;48.386;11.738;2024-01-06T09:04:07;10.13;;;4.78;;
48040;SDS011;33815;48.386;11.738;2024-01-06T09:06:32;16.95;;;9.05;;
48040;SDS011;33815;48.386;11.738;2024-01-06T09:08:58;8.20;;;5.32;;
48040;SDS011;33815;48.386;11.738;2024-01-06T09:11:23;64.50;;;30.67;;
48040;SDS011;33815;48.386;11.738;2024-01-06T09:13:49;33.33;;;18.88;;
48040;SDS011;33815;48.386;11.738;2024-01-06T09:16:17;15.95;;;7.18;;
48040;SDS011;33815;48.386;11.738;2024-01-06T09:18:43;10.20;;;4.30;;
48040;SDS011;33815;48.386;11.738;2024-01-06T09:21:08;14.90;;;9.20;;
48040;SDS011;33815;48.386;11.738;2024-01-06T09:23:34;9.07;;;3.60;;
48040;SDS011;33815;48.386;11.738;2024-01-06T09:25:59;9.48;;;6.22;;
48040;SDS011;33815;48.386;11.738;2024-01-06T09:28:24;7.57;;;3.35;;
48040;SDS011;33815;48.386;11.738;2024-01-06T09:30:50;8.75;;;3.08;;
48040;SDS011;33815;48.386;11.738;2024-01-06T09:33:17;11.25;;;3.63;;
48040;SDS011;33815;48.386;11.738;2024-01-06T09:35:42;5.15;;;3.58;;
48040;SDS011;33815;48.386;11.738;2024-01-06T09:38:09;6.13;;;3.45;;
48040;SDS011;33815;48.386;11.738;2024-01-06T09:40:34;8.20;;;3.80;;
48040;SDS011;33815;48.386;11.738;2024-01-06T09:43:06;6.40;;;4.22;;
48040;SDS011;33815;48.386;11.738;2024-01-06T09:45:31;6.43;;;4.22;;
48040;SDS011;33815;48.386;11.738;2024-01-06T09:47:56;4.40;;;3.65;;
48040;SDS011;33815;48.386;11.738;2024-01-06T09:50:23;7.65;;;3.97;;
48040;SDS011;33815;48.386;11.738;2024-01-06T09:52:48;5.63;;;4.00;;
48040;SDS011;33815;48.386;11.738;2024-01-06T09:55:28;9.07;;;4.13;;
48040;SDS011;33815;48.386;11.738;2024-01-06T09:57:54;9.50;;;3.92;;
48040;SDS011;33815;48.386;11.738;2024-01-06T10:00:20;6.32;;;4.03;;
48040;SDS011;33815;48.386;11.738;2024-01-06T10:02:47;15.57;;;8.13;;
48040;SDS011;33815;48.386;11.738;2024-01-06T10:05:14;8.05;;;4.30;;
48040;SDS011;33815;48.386;11.738;2024-01-06T10:07:41;4.07;;;3.70;;
48040;SDS011;33815;48.386;11.738;2024-01-06T10:10:08;9.00;;;4.10;;
48040;SDS011;33815;48.386;11.738;2024-01-06T10:12:36;13.13;;;4.38;;
48040;SDS011;33815;48.386;11.738;2024-01-06T10:15:02;10.40;;;4.25;;
48040;SDS011;33815;48.386;11.738;2024-01-06T10:17:28;6.40;;;4.50;;
48040;SDS011;33815;48.386;11.738;2024-01-06T10:19:53;10.25;;;5.15;;
48040;SDS011;33815;48.386;11.738;2024-01-06T10:22:19;6.78;;;4.40;;
48040;SDS011;33815;48.386;11.738;2024-01-06T10:24:44;9.48;;;4.43;;
48040;SDS011;33815;48.386;11.738;2024-01-06T10:27:11;9.77;;;4.75;;
48040;SDS011;33815;48.386;11.738;2024-01-06T10:29:36;7.05;;;4.40;;
48040;SDS011;33815;48.386;11.738;2024-01-06T10:32:02;12.45;;;4.30;;
48040;SDS011;33815;48.386;11.738;2024-01-06T10:34:27;12.70;;;5.53;;
48040;SDS011;33815;48.386;11.738;2024-01-06T10:36:54;9.43;;;4.60;;
48040;SDS011;33815;48.386;11.738;2024-01-06T10:39:19;12.98;;;5.43;;
48040;SDS011;33815;48.386;11.738;2024-01-06T10:41:46;9.88;;;4.93;;
48040;SDS011;33815;48.386;11.738;2024-01-06T10:44:14;9.10;;;5.00;;
48040;SDS011;33815;48.386;11.738;2024-01-06T10:46:40;8.32;;;5.15;;
48040;SDS011;33815;48.386;11.738;2024-01-06T10:49:06;16.75;;;5.72;;
48040;SDS011;33815;48.386;11.738;2024-01-06T10:51:36;13.25;;;6.30;;
48040;SDS011;33815;48.386;11.738;2024-01-06T10:54:02;9.02;;;5.43;;
48040;SDS011;33815;48.386;11.738;2024-01-06T10:56:28;10.18;;;6.38;;
48040;SDS011;33815;48.386;11.738;2024-01-06T10:58:54;13.95;;;6.25;;
48040;SDS011;33815;48.386;11.738;2024-01-06T11:01:23;12.13;;;6.03;;
48040;SDS011;33815;48.386;11.738;2024-01-06T11:03:52;13.27;;;6.00;;
48040;SDS011;33815;48.386;11.738;2024-01-06T11:06:19;12.55;;;6.75;;
48040;SDS011;33815;48.386;11.738;2024-01-06T11:08:50;12.65;;;5.78;;
48040;SDS011;33815;48.386;11.738;2024-01-06T11:18:58;9.95;;;5.30;;
48040;SDS011;33815;48.386;11.738;2024-01-06T11:21:24;13.45;;;6.03;;
48040;SDS011;33815;48.386;11.738;2024-01-06T11:26:41;8.13;;;5.95;;
48040;SDS011;33815;48.386;11.738;2024-01-06T11:29:07;9.50;;;6.10;;
48040;SDS011;33815;48.386;11.738;2024-01-06T11:31:33;16.38;;;6.43;;
48040;SDS011;33815;48.386;11.738;2024-01-06T11:34:12;12.07;;;6.25;;
48040;SDS011;33815;48.386;11.738;2024-01-06T11:36:40;8.82;;;6.32;;
48040;SDS011;33815;48.386;11.738;2024-01-06T11:39:05;8.38;;;5.30;;
48040;SDS011;33815;48.386;11.738;2024-01-06T11:41:49;12.63;;;6.32;;
48040;SDS011;33815;48.386;11.738;2024-01-06T11:44:22;9.30;;;6.18;;
48040;SDS011;33815;48.386;11.738;2024-01-06T11:46:47;7.70;;;5.32;;
48040;SDS011;33815;48.386;11.738;2024-01-06T11:49:17;11.55;;;6.07;;
48040;SDS011;33815;48.386;11.738;2024-01-06T11:51:45;14.73;;;6.18;;
48040;SDS011;33815;48.386;11.738;2024-01-06T11:54:11;14.10;;;6.25;;
48040;SDS011;33815;48.386;11.738;2024-01-06T11:56:37;16.48;;;6.00;;
48040;SDS011;33815;48.386;11.738;2024-01-06T11:59:03;11.48;;;7.10;;
48040;SDS011;33815;48.386;11.738;2024-01-06T12:01:35;12.95;;;5.55;;
48040;SDS011;33815;48.386;11.738;2024-01-06T12:04:01;8.18;;;5.97;;
48040;SDS011;33815;48.386;11.738;2024-01-06T12:06:28;15.27;;;6.35;;
48040;SDS011;33815;48.386;11.738;2024-01-06T12:09:02;7.95;;;5.93;;
48040;SDS011;33815;48.386;11.738;2024-01-06T12:11:29;15.57;;;6.13;;
48040;SDS011;33815;48.386;11.738;2024-01-06T12:13:55;10.32;;;5.55;;
48040;SDS011;33815;48.386;11.738;2024-01-06T12:16:20;14.25;;;6.10;;
48040;SDS011;33815;48.386;11.738;2024-01-06T12:18:46;10.15;;;5.68;;
48040;SDS011;33815;48.386;11.738;2024-01-06T12:21:11;12.35;;;5.93;;
48040;SDS011;33815;48.386;11.738;2024-01-06T12:23:37;8.40;;;5.35;;
48040;SDS011;33815;48.386;11.738;2024-01-06T12:26:02;10.50;;;5.53;;
48040;SDS011;33815;48.386;11.738;2024-01-06T12:28:27;11.85;;;7.03;;
48040;SDS011;33815;48.386;11.738;2024-01-06T12:30:53;10.40;;;5.97;;
48040;SDS011;33815;48.386;11.738;2024-01-06T12:33:19;15.63;;;7.70;;
48040;SDS011;33815;48.386;11.738;2024-01-06T12:35:45;14.30;;;6.93;;
48040;SDS011;33815;48.386;11.738;2024-01-06T12:38:10;13.00;;;6.07;;
48040;SDS011;33815;48.386;11.738;2024-01-06T12:40:36;13.90;;;6.60;;
48040;SDS011;33815;48.386;11.738;2024-01-06T12:43:03;12.13;;;5.70;;
48040;SDS011;33815;48.386;11.738;2024-01-06T12:45:29;7.55;;;6.03;;
48040;SDS011;33815;48.386;11.738;2024-01-06T12:47:54;8.80;;;6.00;;
48040;SDS011;33815;48.386;11.738;2024-01-06T12:50:20;9.65;;;7.40;;
48040;SDS011;33815;48.386;11.738;2024-01-06T12:52:45;10.32;;;6.00;;
48040;SDS011;33815;48.386;11.738;2024-01-06T12:55:11;14.00;;;6.43;;
48040;SDS011;33815;48.386;11.738;2024-01-06T12:57:36;14.82;;;9.00;;
48040;SDS011;33815;48.386;11.738;2024-01-06T13:00:02;10.70;;;6.82;;
48040;SDS011;33815;48.386;11.738;2024-01-06T13:02:28;9.20;;;6.78;;
48040;SDS011;33815;48.386;11.738;2024-01-06T13:04:54;8.77;;;5.40;;
48040;SDS011;33815;48.386;11.738;2024-01-06T13:07:20;6.65;;;5.57;;
48040;SDS011;33815;48.386;11.738;2024-01-06T13:09:47;7.03;;;6.15;;
48040;SDS011;33815;48.386;11.738;2024-01-06T13:12:12;9.60;;;6.88;;
48040;SDS011;33815;48.386;11.738;2024-01-06T13:14:37;8.88;;;6.20;;
48040;SDS011;33815;48.386;11.738;2024-01-06T13:17:03;11.23;;;5.85;;
48040;SDS011;33815;48.386;11.738;2024-01-06T13:19:28;10.10;;;6.32;;
48040;SDS011;33815;48.386;11.738;2024-01-06T13:21:54;10.45;;;7.25;;
48040;SDS011;33815;48.386;11.738;2024-01-06T13:24:19;8.60;;;6.13;;
48040;SDS011;33815;48.386;11.738;2024-01-06T13:26:44;8.20;;;6.43;;
48040;SDS011;33815;48.386;11.738;2024-01-06T13:29:10;11.43;;;7.07;;
48040;SDS011;33815;48.386;11.738;2024-01-06T13:31:35;12.90;;;7.07;;
48040;SDS011;33815;48.386;11.738;2024-01-06T13:34:02;12.48;;;8.00;;
48040;SDS011;33815;48.386;11.738;2024-01-06T13:36:27;11.70;;;7.35;;
48040;SDS011;33815;48.386;11.738;2024-01-06T13:38:53;9.95;;;7.40;;
48040;SDS011;33815;48.386;11.738;2024-01-06T13:41:18;10.25;;;6.57;;
48040;SDS011;33815;48.386;11.738;2024-01-06T13:43:43;9.45;;;6.57;;
48040;SDS011;33815;48.386;11.738;2024-01-06T13:46:09;14.07;;;8.13;;
48040;SDS011;33815;48.386;11.738;2024-01-06T13:48:35;11.52;;;6.60;;
48040;SDS011;33815;48.386;11.738;2024-01-06T13:51:01;13.52;;;7.50;;
48040;SDS011;33815;48.386;11.738;2024-01-06T13:53:26;12.35;;;7.70;;
48040;SDS011;33815;48.386;11.738;2024-01-06T13:55:51;9.68;;;6.80;;
48040;SDS011;33815;48.386;11.738;2024-01-06T13:58:17;16.38;;;7.88;;
48040;SDS011;33815;48.386;11.738;2024-01-06T14:00:42;11.38;;;7.50;;
48040;SDS011;33815;48.386;11.738;2024-01-06T14:03:09;11.13;;;7.65;;
48040;SDS011;33815;48.386;11.738;2024-01-06T14:05:34;9.65;;;7.40;;
48040;SDS011;33815;48.386;11.738;2024-01-06T14:08:00;13.43;;;8.05;;
48040;SDS011;33815;48.386;11.738;2024-01-06T14:10:25;11.40;;;7.10;;
48040;SDS011;33815;48.386;11.738;2024-01-06T14:12:51;9.95;;;6.22;;
48040;SDS011;33815;48.386;11.738;2024-01-06T14:15:18;10.38;;;7.07;;
48040;SDS011;33815;48.386;11.738;2024-01-06T14:17:43;9.75;;;6.32;;
48040;SDS011;33815;48.386;11.738;2024-01-06T14:20:14;13.05;;;6.38;;
48040;SDS011;33815;48.386;11.738;2024-01-06T14:22:42;9.63;;;7.00;;
48040;SDS011;33815;48.386;11.738;2024-01-06T14:25:08;10.35;;;6.85;;
48040;SDS011;33815;48.386;11.738;2024-01-06T14:27:34;9.50;;;6.90;;